Vise, Belgium
Current Conditions -  °F | °C
As of 11:55 PM on Thursday 27 Nov 2014 (Local Time) from EHBK Reporting Station
Haze Haze  
Wind Chill: 39°   Ceiling: Unl
Heat Index: 43°   Visibility: 2.9mi
Dew Point: 41°   Wind: 7mph
Humidity: 93%   Direction: 90°E
Pressure: 29.71"   Gusts: NA
Location:  50.74°N, 5.7°E
Report Text: EHBK 272255Z AUTO 09006KT 4700 BR NCD 06/05 Q1006
Loading
Personal Weather Stations






























Interactive Weather Map New forecast layout! Learn more

10-Day Weather Forecast

Advertisements
Track Severe Weather on mobile